createdAt,value
2023-03-16T00:11:30.636Z,100803.95
2023-03-16T00:26:21.597Z,100814.06
2023-03-16T00:41:11.529Z,100809.39
2023-03-16T00:56:01.769Z,100801.20
2023-03-16T01:10:51.308Z,100789.00
2023-03-16T01:25:41.915Z,100783.38
2023-03-16T01:40:32.852Z,100757.57
2023-03-16T01:55:23.367Z,100762.44
2023-03-16T02:10:13.830Z,100760.80
2023-03-16T02:25:03.492Z,100743.02
2023-03-16T02:39:53.826Z,100716.41
2023-03-16T02:54:43.840Z,100717.77
2023-03-16T03:09:33.712Z,100704.70
2023-03-16T03:24:25.257Z,100688.48
2023-03-16T03:39:16.492Z,100678.80
2023-03-16T04:23:47.269Z,100663.92
2023-03-16T04:38:36.557Z,100661.91
2023-03-16T04:53:26.915Z,100659.80
2023-03-16T05:08:16.422Z,100671.60
2023-03-16T05:23:06.264Z,100662.04
2023-03-16T05:37:56.805Z,100655.11
2023-03-16T06:08:29.468Z,100651.14
2023-03-16T06:23:19.613Z,100661.16
2023-03-16T06:38:09.221Z,100655.00
2023-03-16T06:52:59.113Z,100654.50
2023-03-16T07:07:50.445Z,100653.96
2023-03-16T07:22:42.753Z,100658.13
2023-03-16T07:37:34.049Z,100673.17
2023-03-16T07:52:24.770Z,100668.92
2023-03-16T08:07:16.593Z,100644.73
2023-03-16T08:22:09.680Z,100643.87
2023-03-16T08:37:01.658Z,100634.70
2023-03-16T08:51:53.781Z,100649.16
2023-03-16T09:06:46.507Z,100618.32
2023-03-16T09:21:36.398Z,100619.21
2023-03-16T09:36:27.289Z,100617.09
2023-03-16T09:51:31.993Z,100598.92
2023-03-16T10:06:25.855Z,100563.47
2023-03-16T10:21:17.767Z,100548.23
2023-03-16T10:36:17.685Z,100558.90
2023-03-16T10:51:14.334Z,100543.14
2023-03-16T11:06:06.208Z,100525.87
2023-03-16T11:21:02.154Z,100508.55
2023-03-16T11:36:18.000Z,100492.14
2023-03-16T11:51:15.758Z,100474.00
2023-03-16T12:06:24.896Z,100463.14
2023-03-16T12:21:30.566Z,100456.27
2023-03-16T12:36:35.488Z,100421.67
2023-03-16T12:51:34.966Z,100401.17
2023-03-16T13:06:36.142Z,100390.48
2023-03-16T13:21:34.174Z,100370.05
2023-03-16T13:36:28.323Z,100350.66
2023-03-16T13:51:20.356Z,100332.39
2023-03-16T14:06:24.693Z,100300.19
2023-03-16T14:21:19.913Z,100299.15
2023-03-16T14:36:13.646Z,100275.45
2023-03-16T14:51:07.954Z,100271.46
2023-03-16T15:05:59.820Z,100271.34
2023-03-16T15:20:50.914Z,100263.77
2023-03-16T15:35:42.042Z,100255.48
2023-03-16T15:50:32.060Z,100245.69
2023-03-16T16:20:29.265Z,100205.71
2023-03-16T16:35:24.140Z,100201.39
2023-03-16T17:05:25.378Z,100203.15
2023-03-16T17:20:20.729Z,100201.73
2023-03-16T17:35:13.550Z,100198.08
2023-03-16T17:50:06.665Z,100190.13
2023-03-16T18:04:56.297Z,100171.31
2023-03-16T18:19:52.648Z,100155.54
2023-03-16T18:49:46.916Z,100146.94
2023-03-16T19:04:36.644Z,100146.23
2023-03-16T19:19:26.816Z,100134.62
2023-03-16T19:34:17.488Z,100154.34
2023-03-16T19:49:17.047Z,100145.20
2023-03-16T20:04:20.248Z,100136.44
2023-03-16T20:19:15.618Z,100125.37
2023-03-16T20:34:05.862Z,100133.58
2023-03-16T21:03:55.590Z,100125.86
2023-03-16T21:18:46.836Z,100125.48
2023-03-16T21:33:37.373Z,100122.52
2023-03-16T21:48:39.009Z,100113.38
2023-03-16T22:03:49.669Z,100094.91
2023-03-16T22:18:33.791Z,100089.62
2023-03-16T22:33:29.452Z,100069.92
2023-03-16T22:48:20.099Z,100064.27
2023-03-16T23:03:16.820Z,100064.78
2023-03-16T23:18:16.548Z,100048.92
2023-03-16T23:33:11.339Z,100025.62
2023-03-16T23:48:01.882Z,100025.44
